Terminal Aerodrome Forecast
Issued by NWS

Home | Current Version | Previous Version | Text Only | Print | Product List | Glossary On
Versions: 1 2 3 4 5 6 7 8 9 10 11 12 13
000
FTUS45 KPIH 292322
TAFSUN
TAF
KSUN 292322Z 3000/3024 20010KT P6SM VCTS SCT120 BKN150CB
     FM300500 34010KT P6SM FEW120 SCT150
     FM301700 14008KT P6SM SCT100=

USA.gov is the U.S. government's official web portal to all federal, state and local government web resources and services.